createdAt,value
2018-01-15T00:01:36.242Z,1.30
2018-01-15T00:04:03.723Z,1.30
2018-01-15T00:06:33.498Z,1.20
2018-01-15T00:09:00.965Z,1.20
2018-01-15T00:11:28.425Z,1.30
2018-01-15T00:13:55.864Z,1.30
2018-01-15T00:16:23.316Z,1.30
2018-01-15T00:18:50.826Z,1.30
2018-01-15T00:21:18.309Z,1.20
2018-01-15T00:23:45.750Z,1.30
2018-01-15T00:26:13.240Z,1.40
2018-01-15T00:28:40.691Z,1.40
2018-01-15T00:31:08.151Z,1.40
2018-01-15T00:33:35.601Z,1.30
2018-01-15T00:36:03.035Z,1.40
2018-01-15T00:38:30.518Z,1.40
2018-01-15T00:40:57.971Z,1.40
2018-01-15T00:43:25.470Z,1.50
2018-01-15T00:45:52.915Z,1.50
2018-01-15T00:48:20.377Z,1.50
2018-01-15T00:50:47.827Z,1.50
2018-01-15T00:53:15.287Z,1.40
2018-01-15T00:55:43.517Z,1.30
2018-01-15T00:58:11.111Z,1.30
2018-01-15T01:00:38.585Z,1.20
2018-01-15T01:03:06.811Z,1.30
2018-01-15T01:05:34.294Z,1.30
2018-01-15T01:08:01.810Z,1.40
2018-01-15T01:10:29.382Z,1.30
2018-01-15T01:12:56.857Z,1.30
2018-01-15T01:15:24.329Z,1.20
2018-01-15T01:17:51.795Z,1.20
2018-01-15T01:20:19.245Z,1.30
2018-01-15T01:22:46.717Z,1.30
2018-01-15T01:25:14.162Z,1.30
2018-01-15T01:27:41.619Z,1.30
2018-01-15T01:30:09.864Z,1.40
2018-01-15T01:32:37.321Z,1.40
2018-01-15T01:35:05.251Z,1.40
2018-01-15T01:37:32.695Z,1.30
2018-01-15T01:40:00.153Z,1.40
2018-01-15T01:42:27.606Z,1.40
2018-01-15T01:44:55.147Z,1.30
2018-01-15T01:47:23.378Z,1.30
2018-01-15T01:49:50.836Z,1.30
2018-01-15T01:52:18.315Z,1.20
2018-01-15T01:54:45.843Z,1.20
2018-01-15T01:57:13.360Z,1.20
2018-01-15T01:59:41.606Z,1.20
2018-01-15T02:02:09.116Z,1.20
2018-01-15T02:04:37.307Z,1.20
2018-01-15T02:07:04.774Z,1.20
2018-01-15T02:09:32.231Z,1.20
2018-01-15T02:11:59.720Z,1.20
2018-01-15T02:14:27.235Z,1.20
2018-01-15T02:16:54.712Z,1.10
2018-01-15T02:19:22.170Z,1.20
2018-01-15T02:21:49.754Z,1.20
2018-01-15T02:24:17.312Z,1.20
2018-01-15T02:26:44.779Z,1.30
2018-01-15T02:29:12.227Z,1.20
2018-01-15T02:31:39.678Z,1.30
2018-01-15T02:34:07.144Z,1.20
2018-01-15T02:36:35.339Z,1.20
2018-01-15T02:39:02.876Z,1.20
2018-01-15T02:41:30.326Z,1.20
2018-01-15T02:43:57.786Z,1.40
2018-01-15T02:46:25.241Z,1.30
2018-01-15T02:48:57.163Z,1.40
2018-01-15T02:51:24.626Z,1.30
2018-01-15T02:53:52.101Z,1.40
2018-01-15T02:56:19.577Z,1.30
2018-01-15T02:58:47.800Z,1.20
2018-01-15T03:01:15.243Z,1.20
2018-01-15T03:03:42.700Z,1.20
2018-01-15T03:06:10.152Z,1.30
2018-01-15T03:08:37.615Z,1.50
2018-01-15T03:11:05.200Z,1.50
2018-01-15T03:13:32.647Z,1.50
2018-01-15T03:16:00.105Z,1.30
2018-01-15T03:18:27.556Z,1.40
2018-01-15T03:20:55.051Z,1.40
2018-01-15T03:23:22.506Z,1.40
2018-01-15T03:25:50.756Z,1.50
2018-01-15T03:28:18.206Z,1.40
2018-01-15T03:30:45.668Z,1.50
2018-01-15T03:33:13.116Z,1.60
2018-01-15T03:35:40.562Z,1.60
2018-01-15T03:38:08.031Z,1.60
2018-01-15T03:40:35.535Z,1.60
2018-01-15T03:43:03.759Z,1.70
2018-01-15T03:45:31.225Z,1.70
2018-01-15T03:47:58.673Z,1.60
2018-01-15T03:50:26.126Z,1.60
2018-01-15T03:52:53.586Z,1.50
2018-01-15T03:55:21.042Z,1.50
2018-01-15T03:57:48.498Z,1.50
2018-01-15T04:00:15.955Z,1.50
2018-01-15T04:02:43.423Z,1.50
2018-01-15T04:05:11.053Z,1.40
2018-01-15T04:07:38.533Z,1.60
2018-01-15T04:10:05.979Z,1.60
2018-01-15T04:12:33.493Z,1.60
2018-01-15T04:15:01.022Z,1.60
2018-01-15T04:17:29.288Z,1.70
2018-01-15T04:19:56.760Z,1.60
2018-01-15T04:22:24.969Z,1.60
2018-01-15T04:24:52.440Z,1.50
2018-01-15T04:27:19.902Z,1.60
2018-01-15T04:29:47.360Z,1.70
2018-01-15T04:40:51.394Z,1.80
2018-01-15T04:43:18.830Z,1.80
2018-01-15T04:45:46.297Z,1.70
2018-01-15T04:48:14.531Z,2.00
2018-01-15T04:50:42.011Z,2.00
2018-01-15T04:53:09.463Z,1.90
2018-01-15T04:55:37.691Z,1.80
2018-01-15T04:58:05.149Z,1.80
2018-01-15T05:00:32.632Z,1.80
2018-01-15T05:03:00.090Z,1.70
2018-01-15T05:05:27.556Z,1.50
2018-01-15T05:07:54.999Z,1.70
2018-01-15T05:10:22.438Z,1.60
2018-01-15T05:12:50.704Z,1.80
2018-01-15T05:15:18.143Z,1.80
2018-01-15T05:17:45.611Z,1.80
2018-01-15T05:20:13.178Z,1.70
2018-01-15T05:22:41.210Z,1.80
2018-01-15T05:25:08.717Z,1.80
2018-01-15T05:27:36.168Z,1.90
2018-01-15T05:30:04.421Z,2.10
2018-01-15T05:32:31.867Z,2.10
2018-01-15T05:34:59.338Z,2.00
2018-01-15T05:37:26.846Z,1.90
2018-01-15T05:39:54.366Z,1.90
2018-01-15T05:42:21.812Z,1.90
2018-01-15T05:44:49.282Z,1.90
2018-01-15T05:47:16.770Z,1.90
2018-01-15T05:49:45.145Z,2.00
2018-01-15T05:52:12.595Z,2.00
2018-01-15T05:54:40.066Z,2.10
2018-01-15T05:57:08.300Z,2.10
2018-01-15T05:59:35.755Z,2.10
2018-01-15T06:02:03.225Z,2.00
2018-01-15T06:04:30.707Z,2.10
2018-01-15T06:06:58.169Z,2.00
2018-01-15T06:09:26.391Z,2.10
2018-01-15T06:11:53.852Z,2.00
2018-01-15T06:14:21.296Z,2.10
2018-01-15T06:16:48.775Z,2.00
2018-01-15T06:19:16.219Z,2.00
2018-01-15T06:21:43.705Z,2.00
2018-01-15T06:24:11.173Z,2.00
2018-01-15T06:26:39.385Z,2.10
2018-01-15T06:29:06.888Z,2.00
2018-01-15T06:31:34.330Z,2.00
2018-01-15T06:34:01.813Z,2.10
2018-01-15T06:36:29.291Z,2.10
2018-01-15T06:38:56.795Z,2.20
2018-01-15T06:41:24.258Z,2.30
2018-01-15T06:43:51.735Z,2.40
2018-01-15T06:46:20.014Z,2.50
2018-01-15T06:48:47.458Z,2.40
2018-01-15T06:51:14.932Z,2.50
2018-01-15T06:53:42.383Z,2.50
2018-01-15T06:56:10.578Z,2.60
2018-01-15T06:58:38.063Z,2.60
2018-01-15T07:01:06.288Z,2.60
2018-01-15T07:03:34.525Z,2.80
2018-01-15T07:06:02.744Z,2.80
2018-01-15T07:08:30.991Z,2.80
2018-01-15T07:10:58.454Z,2.80
2018-01-15T07:13:25.913Z,2.80
2018-01-15T07:15:53.378Z,2.80
2018-01-15T07:18:21.585Z,2.80
2018-01-15T07:20:49.057Z,2.80
2018-01-15T07:23:16.533Z,2.90
2018-01-15T07:25:44.001Z,2.80
2018-01-15T07:28:11.574Z,2.80
2018-01-15T07:30:39.030Z,2.80
2018-01-15T07:33:06.484Z,2.80
2018-01-15T07:35:33.977Z,2.80
2018-01-15T07:38:01.635Z,2.80
2018-01-15T07:40:29.102Z,2.70
2018-01-15T07:42:56.574Z,2.70
2018-01-15T07:45:24.082Z,2.70
2018-01-15T07:47:52.309Z,2.70
2018-01-15T07:50:19.758Z,2.70
2018-01-15T07:52:47.250Z,2.80
2018-01-15T07:55:14.708Z,2.70
2018-01-15T07:57:42.172Z,2.70
2018-01-15T08:00:09.637Z,2.80
2018-01-15T08:02:37.345Z,3.00
2018-01-15T08:05:04.796Z,3.10
2018-01-15T08:07:32.252Z,3.00
2018-01-15T08:09:59.772Z,3.10
2018-01-15T08:12:28.823Z,2.80
2018-01-15T08:14:56.347Z,2.80
2018-01-15T08:17:24.533Z,2.80
2018-01-15T08:22:58.665Z,2.70
2018-01-15T08:25:32.353Z,2.90
2018-01-15T08:28:00.677Z,2.90
2018-01-15T08:30:28.186Z,2.80
2018-01-15T08:32:55.667Z,2.70
2018-01-15T08:35:23.167Z,2.80
2018-01-15T08:37:50.780Z,3.00
2018-01-15T08:45:37.061Z,2.70
2018-01-15T08:48:05.275Z,3.00
2018-01-15T08:50:32.755Z,3.00
2018-01-15T08:53:00.220Z,3.00
2018-01-15T08:55:28.451Z,3.30
2018-01-15T08:57:55.920Z,3.30
2018-01-15T09:00:23.444Z,3.20
2018-01-15T09:02:51.658Z,3.20
2018-01-15T09:05:19.115Z,3.10
2018-01-15T09:07:46.566Z,3.00
2018-01-15T09:10:14.088Z,3.00
2018-01-15T09:12:42.530Z,3.10
2018-01-15T09:15:10.028Z,3.20
2018-01-15T09:17:38.238Z,3.30
2018-01-15T09:20:05.706Z,3.30
2018-01-15T09:22:33.210Z,3.30
2018-01-15T09:25:01.423Z,3.30
2018-01-15T09:27:28.890Z,3.30
2018-01-15T09:29:56.348Z,3.30
2018-01-15T09:32:23.793Z,3.30
2018-01-15T09:34:51.257Z,3.30
2018-01-15T09:37:18.729Z,3.10
2018-01-15T09:39:46.166Z,3.20
2018-01-15T09:42:13.646Z,3.00
2018-01-15T09:44:41.156Z,3.00
2018-01-15T09:47:08.580Z,3.10
2018-01-15T09:49:36.823Z,3.10
2018-01-15T09:52:04.275Z,3.10
2018-01-15T09:54:31.724Z,3.20
2018-01-15T09:56:59.180Z,3.10
2018-01-15T09:59:26.792Z,3.10
2018-01-15T10:01:55.029Z,3.20
2018-01-15T10:04:22.501Z,3.10
2018-01-15T10:06:49.992Z,3.20
2018-01-15T10:09:17.469Z,3.20
2018-01-15T10:11:45.012Z,3.20
2018-01-15T10:14:12.496Z,3.30
2018-01-15T10:16:39.951Z,3.40
2018-01-15T10:19:07.408Z,3.40
2018-01-15T10:21:34.854Z,3.40
2018-01-15T10:24:02.327Z,3.20
2018-01-15T10:26:29.775Z,3.30
2018-01-15T10:28:57.253Z,3.50
2018-01-15T10:31:24.714Z,3.40
2018-01-15T10:33:52.224Z,3.30
2018-01-15T10:36:19.776Z,3.40
2018-01-15T10:38:47.266Z,3.30
2018-01-15T10:41:14.726Z,3.20
2018-01-15T10:43:42.182Z,3.30
2018-01-15T10:46:09.650Z,3.30
2018-01-15T10:48:37.106Z,3.30
2018-01-15T10:51:04.540Z,3.30
2018-01-15T10:53:31.999Z,3.40
2018-01-15T10:55:59.462Z,3.40
2018-01-15T10:58:26.947Z,3.40
2018-01-15T11:00:54.455Z,3.50
2018-01-15T11:03:21.913Z,3.50
2018-01-15T11:05:49.375Z,3.50
2018-01-15T11:08:16.846Z,3.50
2018-01-15T11:10:44.355Z,3.60
2018-01-15T11:13:12.731Z,3.70
2018-01-15T11:15:40.235Z,3.70
2018-01-15T11:18:07.846Z,3.80
2018-01-15T11:20:35.135Z,3.70
2018-01-15T11:23:02.781Z,3.70
2018-01-15T11:25:30.281Z,3.80
2018-01-15T11:27:57.706Z,3.80
2018-01-15T11:30:25.784Z,3.80
2018-01-15T11:32:53.259Z,3.70
2018-01-15T11:35:20.743Z,3.70
2018-01-15T11:37:51.240Z,3.80
2018-01-15T11:40:18.772Z,3.60
2018-01-15T11:42:46.391Z,3.60
2018-01-15T11:45:13.907Z,3.70
2018-01-15T11:47:41.392Z,3.70
2018-01-15T11:50:08.930Z,3.80
2018-01-15T11:52:36.445Z,3.90
2018-01-15T11:55:04.044Z,4.00
2018-01-15T11:57:31.632Z,4.00
2018-01-15T11:59:59.352Z,4.00
2018-01-15T12:02:27.184Z,3.90
2018-01-15T12:04:54.684Z,3.90
2018-01-15T12:07:25.242Z,3.90
2018-01-15T12:09:56.787Z,3.90
2018-01-15T12:12:24.344Z,3.90
2018-01-15T12:14:51.872Z,3.80
2018-01-15T12:17:36.776Z,4.00
2018-01-15T12:20:04.244Z,3.90
2018-01-15T12:22:31.754Z,3.90
2018-01-15T12:25:03.431Z,4.10
2018-01-15T12:27:31.728Z,4.00
2018-01-15T12:30:00.033Z,4.20
2018-01-15T12:32:27.463Z,4.10
2018-01-15T12:34:59.246Z,4.30
2018-01-15T12:37:26.775Z,4.30
2018-01-15T12:39:54.258Z,4.30
2018-01-15T12:42:21.744Z,4.30
2018-01-15T12:44:49.236Z,4.40
2018-01-15T12:47:16.732Z,4.50
2018-01-15T12:49:44.219Z,4.50
2018-01-15T12:52:11.725Z,4.60
2018-01-15T12:54:39.694Z,4.60
2018-01-15T12:57:07.231Z,4.70
2018-01-15T12:59:34.727Z,4.60
2018-01-15T13:02:03.559Z,4.60
2018-01-15T13:04:31.014Z,4.60
2018-01-15T13:06:59.289Z,4.70
2018-01-15T13:09:26.851Z,4.60
2018-01-15T13:11:54.312Z,4.70
2018-01-15T13:14:21.918Z,4.70
2018-01-15T13:16:49.430Z,4.80
2018-01-15T13:19:16.995Z,4.80
2018-01-15T13:21:45.280Z,4.90
2018-01-15T13:24:13.586Z,4.90
2018-01-15T13:26:41.137Z,4.90
2018-01-15T13:29:08.612Z,5.00
2018-01-15T13:31:36.068Z,5.00
2018-01-15T13:34:04.411Z,5.10
2018-01-15T13:36:31.983Z,5.10
2018-01-15T13:38:59.528Z,5.10
2018-01-15T13:41:27.018Z,5.10
2018-01-15T13:43:54.480Z,5.10
2018-01-15T13:46:21.960Z,5.10
2018-01-15T13:48:49.439Z,5.10
2018-01-15T13:51:16.953Z,5.10
2018-01-15T13:53:44.418Z,5.10
2018-01-15T13:56:11.900Z,5.10
2018-01-15T13:58:39.423Z,5.10
2018-01-15T14:01:06.955Z,5.20
2018-01-15T14:03:35.162Z,5.30
2018-01-15T14:06:02.660Z,5.30
2018-01-15T14:08:30.133Z,5.30
2018-01-15T14:10:57.757Z,5.40
2018-01-15T14:13:25.247Z,5.50
2018-01-15T14:15:52.707Z,5.60
2018-01-15T14:18:21.001Z,5.70
2018-01-15T14:20:48.455Z,5.70
2018-01-15T14:23:15.977Z,5.80
2018-01-15T14:25:43.444Z,5.80
2018-01-15T14:28:11.578Z,5.90
2018-01-15T14:30:39.050Z,5.90
2018-01-15T14:33:06.522Z,6.00
2018-01-15T14:35:33.978Z,6.10
2018-01-15T14:38:02.295Z,6.20
2018-01-15T14:40:29.846Z,6.20
2018-01-15T14:42:58.072Z,6.30
2018-01-15T14:45:25.562Z,6.30
2018-01-15T14:47:53.020Z,6.30
2018-01-15T14:50:20.495Z,6.40
2018-01-15T14:52:47.953Z,6.40
2018-01-15T14:55:15.423Z,6.50
2018-01-15T14:57:44.135Z,6.50
2018-01-15T15:00:11.625Z,6.60
2018-01-15T15:02:39.098Z,6.60
2018-01-15T15:05:06.563Z,6.70
2018-01-15T15:07:34.011Z,6.70
2018-01-15T15:10:01.500Z,6.70
2018-01-15T15:12:28.944Z,6.80
2018-01-15T15:14:56.413Z,6.80
2018-01-15T15:17:23.844Z,6.90
2018-01-15T15:19:51.294Z,7.00
2018-01-15T15:22:18.754Z,7.00
2018-01-15T15:24:46.225Z,7.00
2018-01-15T15:27:13.711Z,7.10
2018-01-15T15:29:41.155Z,7.10
2018-01-15T15:32:09.630Z,7.20
2018-01-15T15:34:37.043Z,7.20
2018-01-15T15:37:04.524Z,7.20
2018-01-15T15:39:31.960Z,7.20
2018-01-15T15:41:59.439Z,7.20
2018-01-15T15:44:26.879Z,7.20
2018-01-15T15:46:54.367Z,7.20
2018-01-15T15:49:21.824Z,7.20
2018-01-15T15:51:49.374Z,7.20
2018-01-15T15:54:16.824Z,7.10
2018-01-15T15:56:45.051Z,7.00
2018-01-15T15:59:13.447Z,7.00
2018-01-15T16:01:40.906Z,7.00
2018-01-15T16:04:09.134Z,6.70
2018-01-15T16:06:36.592Z,6.60
2018-01-15T16:09:04.075Z,6.60
2018-01-15T16:11:31.525Z,6.40
2018-01-15T16:13:59.015Z,6.20
2018-01-15T16:16:26.485Z,6.10
2018-01-15T16:18:53.963Z,6.00
2018-01-15T16:21:22.880Z,5.80
2018-01-15T16:23:50.365Z,5.80
2018-01-15T16:26:17.824Z,5.70
2018-01-15T16:28:45.296Z,5.60
2018-01-15T16:31:12.737Z,5.70
2018-01-15T16:33:42.000Z,5.60
2018-01-15T16:36:09.492Z,5.60
2018-01-15T16:38:37.414Z,5.60
2018-01-15T16:41:05.669Z,5.50
2018-01-15T16:43:33.126Z,5.50
2018-01-15T16:46:00.607Z,5.50
2018-01-15T16:48:28.063Z,5.50
2018-01-15T16:50:55.656Z,5.50
2018-01-15T16:53:23.121Z,5.40
2018-01-15T16:55:50.616Z,5.50
2018-01-15T16:58:18.061Z,5.40
2018-01-15T17:00:45.598Z,5.50
2018-01-15T17:03:13.069Z,5.50
2018-01-15T17:05:40.535Z,5.60
2018-01-15T17:08:08.014Z,5.50
2018-01-15T17:10:35.474Z,5.60
2018-01-15T17:13:02.974Z,5.60
2018-01-15T17:15:30.474Z,5.60
2018-01-15T17:17:58.840Z,5.70
2018-01-15T17:20:26.316Z,5.80
2018-01-15T17:22:53.831Z,5.80
2018-01-15T17:25:21.348Z,5.80
2018-01-15T17:27:48.847Z,5.80
2018-01-15T17:30:17.068Z,5.90
2018-01-15T17:32:44.548Z,5.90
2018-01-15T17:35:12.767Z,5.90
2018-01-15T17:37:40.310Z,5.90
2018-01-15T17:40:08.666Z,6.10
2018-01-15T17:42:36.177Z,6.10
2018-01-15T17:45:04.419Z,6.10
2018-01-15T17:47:31.898Z,6.10
2018-01-15T17:49:59.398Z,6.10
2018-01-15T17:52:26.856Z,6.20
2018-01-15T17:54:54.458Z,6.10
2018-01-15T17:57:22.740Z,6.10
2018-01-15T17:59:50.204Z,6.10
2018-01-15T18:02:17.671Z,6.10
2018-01-15T18:04:46.448Z,6.10
2018-01-15T18:07:13.932Z,6.00
2018-01-15T18:09:41.368Z,6.00
2018-01-15T18:12:08.851Z,6.00
2018-01-15T18:14:36.371Z,6.00
2018-01-15T18:17:03.922Z,6.00
2018-01-15T18:19:31.408Z,6.00
2018-01-15T18:21:58.861Z,6.00
2018-01-15T18:24:26.345Z,6.00
2018-01-15T18:26:53.789Z,6.00
2018-01-15T18:29:21.997Z,5.90
2018-01-15T18:31:49.493Z,5.90
2018-01-15T18:34:16.953Z,5.90
2018-01-15T18:36:45.690Z,5.90
2018-01-15T18:39:13.154Z,5.90
2018-01-15T18:41:40.627Z,5.90
2018-01-15T18:44:08.081Z,5.80
2018-01-15T18:46:35.570Z,5.80
2018-01-15T18:49:03.168Z,5.80
2018-01-15T18:51:30.695Z,5.70
2018-01-15T18:53:58.153Z,5.70
2018-01-15T18:56:26.505Z,5.70
2018-01-15T18:58:53.963Z,5.70
2018-01-15T19:01:21.507Z,5.60
2018-01-15T19:03:49.757Z,5.60
2018-01-15T19:06:17.213Z,5.60
2018-01-15T19:08:44.745Z,5.60
2018-01-15T19:11:12.331Z,5.70
2018-01-15T19:13:40.596Z,5.60
2018-01-15T19:16:08.063Z,5.60
2018-01-15T19:18:35.553Z,5.60
2018-01-15T19:21:03.016Z,5.60
2018-01-15T19:23:30.513Z,5.60
2018-01-15T19:25:57.971Z,5.60
2018-01-15T19:28:25.467Z,5.60
2018-01-15T19:30:53.695Z,5.60
2018-01-15T19:33:21.176Z,5.50
2018-01-15T19:36:04.562Z,5.60
2018-01-15T19:38:32.508Z,5.60
2018-01-15T19:40:59.968Z,5.50
2018-01-15T19:43:30.412Z,5.50
2018-01-15T19:46:03.602Z,5.50
2018-01-15T19:51:27.977Z,5.50
2018-01-15T19:54:01.134Z,5.40
2018-01-15T19:56:34.231Z,5.40
2018-01-15T19:59:08.506Z,5.40
2018-01-15T20:01:42.585Z,5.30
2018-01-15T20:04:15.773Z,5.40
2018-01-15T20:06:48.909Z,5.40
2018-01-15T20:09:22.776Z,5.30
2018-01-15T20:11:50.224Z,5.30
2018-01-15T20:14:18.349Z,5.20
2018-01-15T20:16:51.876Z,5.20
2018-01-15T20:19:19.328Z,5.20
2018-01-15T20:21:46.796Z,5.20
2018-01-15T20:24:14.243Z,5.20
2018-01-15T20:26:42.584Z,5.20
2018-01-15T20:29:10.184Z,5.20
2018-01-15T20:31:37.729Z,5.30
2018-01-15T20:34:05.182Z,5.30
2018-01-15T20:36:32.656Z,5.30
2018-01-15T20:39:00.720Z,5.30
2018-01-15T20:41:28.244Z,5.30
2018-01-15T20:44:01.644Z,5.30
2018-01-15T20:46:29.356Z,5.30
2018-01-15T20:58:36.849Z,5.40
2018-01-15T21:01:13.028Z,5.40
2018-01-15T21:13:20.589Z,5.50
2018-01-15T21:16:00.226Z,5.50
2018-01-15T21:18:33.879Z,5.50
2018-01-15T21:21:01.675Z,5.50
2018-01-15T21:33:09.180Z,5.50
2018-01-15T21:35:36.868Z,5.60
2018-01-15T21:38:08.494Z,5.60
2018-01-15T21:40:37.117Z,5.60
2018-01-15T21:43:05.737Z,5.60
2018-01-15T21:45:39.203Z,5.70
2018-01-15T21:48:13.901Z,5.70
2018-01-15T22:00:21.444Z,5.70
2018-01-15T22:15:40.042Z,5.80
2018-01-15T22:18:12.523Z,5.90
2018-01-15T22:20:40.310Z,6.00
2018-01-15T22:32:58.188Z,6.00
2018-01-15T22:35:25.980Z,6.10
2018-01-15T22:37:57.528Z,6.10
2018-01-15T22:50:06.442Z,6.20
2018-01-15T22:52:34.202Z,6.20
2018-01-15T22:55:03.873Z,6.20
2018-01-15T22:57:31.388Z,6.20
2018-01-15T22:59:59.972Z,6.10
2018-01-15T23:02:28.263Z,6.10
2018-01-15T23:04:55.835Z,6.20
2018-01-15T23:07:24.028Z,6.20
2018-01-15T23:09:51.755Z,6.20
2018-01-15T23:12:20.452Z,6.20
2018-01-15T23:14:49.678Z,6.30
2018-01-15T23:17:17.163Z,6.20
2018-01-15T23:19:45.545Z,6.20
2018-01-15T23:22:13.163Z,6.20
2018-01-15T23:24:41.563Z,6.20
2018-01-15T23:27:09.728Z,6.20
2018-01-15T23:29:38.051Z,6.20
2018-01-15T23:32:07.221Z,6.20
2018-01-15T23:34:35.248Z,6.20
2018-01-15T23:49:25.928Z,6.20
2018-01-15T23:51:53.617Z,6.30
2018-01-15T23:54:33.535Z,6.30
